sensor_id;sensor_type;location;lat;lon;timestamp;P1;durP1;ratioP1;P2;durP2;ratioP2
50683;SDS011;36654;45.042;38.994;2023-03-09T00:01:23;6.38;;;3.67;;
50683;SDS011;36654;45.042;38.994;2023-03-09T00:03:50;6.88;;;3.78;;
50683;SDS011;36654;45.042;38.994;2023-03-09T00:06:16;6.57;;;4.07;;
50683;SDS011;36654;45.042;38.994;2023-03-09T00:08:42;4.65;;;3.83;;
50683;SDS011;36654;45.042;38.994;2023-03-09T00:11:08;6.53;;;4.05;;
50683;SDS011;36654;45.042;38.994;2023-03-09T00:13:34;7.60;;;4.18;;
50683;SDS011;36654;45.042;38.994;2023-03-09T00:16:07;8.77;;;4.07;;
50683;SDS011;36654;45.042;38.994;2023-03-09T00:18:33;6.00;;;3.92;;
50683;SDS011;36654;45.042;38.994;2023-03-09T00:20:59;4.75;;;3.72;;
50683;SDS011;36654;45.042;38.994;2023-03-09T00:23:24;7.75;;;3.67;;
50683;SDS011;36654;45.042;38.994;2023-03-09T00:25:50;5.00;;;3.35;;
50683;SDS011;36654;45.042;38.994;2023-03-09T00:28:16;6.60;;;3.90;;
50683;SDS011;36654;45.042;38.994;2023-03-09T00:30:41;5.80;;;4.22;;
50683;SDS011;36654;45.042;38.994;2023-03-09T00:33:07;5.55;;;4.50;;
50683;SDS011;36654;45.042;38.994;2023-03-09T00:35:35;6.85;;;4.10;;
50683;SDS011;36654;45.042;38.994;2023-03-09T00:40:27;6.82;;;4.07;;
50683;SDS011;36654;45.042;38.994;2023-03-09T00:42:52;6.68;;;4.00;;
50683;SDS011;36654;45.042;38.994;2023-03-09T00:45:18;8.82;;;4.53;;
50683;SDS011;36654;45.042;38.994;2023-03-09T00:47:44;5.55;;;4.00;;
50683;SDS011;36654;45.042;38.994;2023-03-09T00:50:09;4.75;;;3.88;;
50683;SDS011;36654;45.042;38.994;2023-03-09T00:52:36;7.00;;;3.97;;
50683;SDS011;36654;45.042;38.994;2023-03-09T00:55:01;7.60;;;4.57;;
50683;SDS011;36654;45.042;38.994;2023-03-09T00:57:27;4.95;;;3.72;;
50683;SDS011;36654;45.042;38.994;2023-03-09T00:59:53;6.32;;;4.25;;
50683;SDS011;36654;45.042;38.994;2023-03-09T01:02:19;5.05;;;4.28;;
50683;SDS011;36654;45.042;38.994;2023-03-09T01:04:45;6.60;;;4.05;;
50683;SDS011;36654;45.042;38.994;2023-03-09T01:07:12;9.32;;;4.60;;
50683;SDS011;36654;45.042;38.994;2023-03-09T01:09:37;4.78;;;4.05;;
50683;SDS011;36654;45.042;38.994;2023-03-09T01:12:03;7.32;;;4.47;;
50683;SDS011;36654;45.042;38.994;2023-03-09T01:14:30;7.25;;;4.70;;
50683;SDS011;36654;45.042;38.994;2023-03-09T01:16:56;8.05;;;4.35;;
50683;SDS011;36654;45.042;38.994;2023-03-09T01:19:21;7.20;;;4.70;;
50683;SDS011;36654;45.042;38.994;2023-03-09T01:21:47;7.47;;;4.75;;
50683;SDS011;36654;45.042;38.994;2023-03-09T01:24:12;6.68;;;4.63;;
50683;SDS011;36654;45.042;38.994;2023-03-09T01:26:38;8.77;;;4.35;;
50683;SDS011;36654;45.042;38.994;2023-03-09T01:29:04;6.43;;;4.35;;
50683;SDS011;36654;45.042;38.994;2023-03-09T01:31:29;6.85;;;4.50;;
50683;SDS011;36654;45.042;38.994;2023-03-09T01:33:55;7.22;;;4.78;;
50683;SDS011;36654;45.042;38.994;2023-03-09T01:36:21;6.75;;;3.92;;
50683;SDS011;36654;45.042;38.994;2023-03-09T01:38:46;4.55;;;3.88;;
50683;SDS011;36654;45.042;38.994;2023-03-09T01:41:14;6.55;;;4.10;;
50683;SDS011;36654;45.042;38.994;2023-03-09T01:43:44;5.88;;;4.22;;
50683;SDS011;36654;45.042;38.994;2023-03-09T01:49:03;5.95;;;4.10;;
50683;SDS011;36654;45.042;38.994;2023-03-09T01:51:36;4.63;;;3.63;;
50683;SDS011;36654;45.042;38.994;2023-03-09T01:54:08;7.20;;;4.13;;
50683;SDS011;36654;45.042;38.994;2023-03-09T01:56:38;5.63;;;4.30;;
50683;SDS011;36654;45.042;38.994;2023-03-09T01:59:07;4.93;;;4.30;;
50683;SDS011;36654;45.042;38.994;2023-03-09T02:01:35;7.47;;;4.35;;
50683;SDS011;36654;45.042;38.994;2023-03-09T02:04:04;6.85;;;4.50;;
50683;SDS011;36654;45.042;38.994;2023-03-09T02:06:33;8.05;;;4.70;;
50683;SDS011;36654;45.042;38.994;2023-03-09T02:09:03;7.40;;;4.38;;
50683;SDS011;36654;45.042;38.994;2023-03-09T02:11:31;8.73;;;4.70;;
50683;SDS011;36654;45.042;38.994;2023-03-09T02:13:57;8.38;;;5.10;;
50683;SDS011;36654;45.042;38.994;2023-03-09T02:16:24;10.45;;;4.85;;
50683;SDS011;36654;45.042;38.994;2023-03-09T02:18:50;8.98;;;5.03;;
50683;SDS011;36654;45.042;38.994;2023-03-09T02:24:17;6.82;;;4.68;;
50683;SDS011;36654;45.042;38.994;2023-03-09T02:29:46;5.40;;;4.32;;
50683;SDS011;36654;45.042;38.994;2023-03-09T02:32:12;5.63;;;4.57;;
50683;SDS011;36654;45.042;38.994;2023-03-09T02:34:38;6.45;;;4.85;;
50683;SDS011;36654;45.042;38.994;2023-03-09T02:37:04;8.35;;;5.00;;
50683;SDS011;36654;45.042;38.994;2023-03-09T02:39:46;6.53;;;4.40;;
50683;SDS011;36654;45.042;38.994;2023-03-09T02:42:14;6.00;;;5.07;;
50683;SDS011;36654;45.042;38.994;2023-03-09T02:44:42;6.28;;;4.85;;
50683;SDS011;36654;45.042;38.994;2023-03-09T02:47:09;6.85;;;5.38;;
50683;SDS011;36654;45.042;38.994;2023-03-09T02:49:38;7.00;;;4.75;;
50683;SDS011;36654;45.042;38.994;2023-03-09T02:52:04;7.13;;;5.03;;
50683;SDS011;36654;45.042;38.994;2023-03-09T02:54:30;8.07;;;4.90;;
50683;SDS011;36654;45.042;38.994;2023-03-09T02:56:55;7.22;;;4.90;;
50683;SDS011;36654;45.042;38.994;2023-03-09T02:59:21;6.75;;;4.75;;
50683;SDS011;36654;45.042;38.994;2023-03-09T03:01:47;8.68;;;5.07;;
50683;SDS011;36654;45.042;38.994;2023-03-09T03:04:12;5.55;;;4.40;;
50683;SDS011;36654;45.042;38.994;2023-03-09T03:06:38;4.50;;;4.00;;
50683;SDS011;36654;45.042;38.994;2023-03-09T03:09:04;7.03;;;4.95;;
50683;SDS011;36654;45.042;38.994;2023-03-09T03:11:30;6.55;;;4.55;;
50683;SDS011;36654;45.042;38.994;2023-03-09T03:13:56;7.13;;;4.63;;
50683;SDS011;36654;45.042;38.994;2023-03-09T03:16:22;6.07;;;4.85;;
50683;SDS011;36654;45.042;38.994;2023-03-09T03:18:47;6.65;;;5.57;;
50683;SDS011;36654;45.042;38.994;2023-03-09T03:21:13;6.97;;;5.07;;
50683;SDS011;36654;45.042;38.994;2023-03-09T03:23:38;8.45;;;5.18;;
50683;SDS011;36654;45.042;38.994;2023-03-09T03:26:07;7.93;;;4.53;;
50683;SDS011;36654;45.042;38.994;2023-03-09T03:28:35;7.72;;;4.57;;
50683;SDS011;36654;45.042;38.994;2023-03-09T03:31:01;8.75;;;4.88;;
50683;SDS011;36654;45.042;38.994;2023-03-09T03:33:27;6.43;;;4.70;;
50683;SDS011;36654;45.042;38.994;2023-03-09T03:35:54;5.13;;;4.55;;
50683;SDS011;36654;45.042;38.994;2023-03-09T03:38:20;7.32;;;4.90;;
50683;SDS011;36654;45.042;38.994;2023-03-09T03:40:46;7.63;;;5.07;;
50683;SDS011;36654;45.042;38.994;2023-03-09T03:43:12;9.65;;;5.18;;
50683;SDS011;36654;45.042;38.994;2023-03-09T03:45:38;9.38;;;4.93;;
50683;SDS011;36654;45.042;38.994;2023-03-09T03:48:03;9.00;;;4.97;;
50683;SDS011;36654;45.042;38.994;2023-03-09T03:50:29;7.85;;;5.20;;
50683;SDS011;36654;45.042;38.994;2023-03-09T03:52:55;8.43;;;5.13;;
50683;SDS011;36654;45.042;38.994;2023-03-09T03:55:20;9.32;;;5.88;;
50683;SDS011;36654;45.042;38.994;2023-03-09T03:57:46;8.73;;;5.20;;
50683;SDS011;36654;45.042;38.994;2023-03-09T04:00:12;7.65;;;5.65;;
50683;SDS011;36654;45.042;38.994;2023-03-09T04:02:38;7.95;;;5.43;;
50683;SDS011;36654;45.042;38.994;2023-03-09T04:05:04;8.45;;;5.95;;
50683;SDS011;36654;45.042;38.994;2023-03-09T04:07:30;8.43;;;5.85;;
50683;SDS011;36654;45.042;38.994;2023-03-09T04:09:55;10.43;;;5.93;;
50683;SDS011;36654;45.042;38.994;2023-03-09T04:12:21;8.55;;;5.35;;
50683;SDS011;36654;45.042;38.994;2023-03-09T04:14:46;10.23;;;5.70;;
50683;SDS011;36654;45.042;38.994;2023-03-09T04:17:12;7.78;;;5.13;;
50683;SDS011;36654;45.042;38.994;2023-03-09T04:19:38;10.30;;;5.40;;
50683;SDS011;36654;45.042;38.994;2023-03-09T04:22:04;10.48;;;5.97;;
50683;SDS011;36654;45.042;38.994;2023-03-09T04:24:32;7.70;;;5.30;;
50683;SDS011;36654;45.042;38.994;2023-03-09T04:26:58;8.57;;;5.60;;
50683;SDS011;36654;45.042;38.994;2023-03-09T04:29:24;10.95;;;5.45;;
50683;SDS011;36654;45.042;38.994;2023-03-09T04:31:49;8.32;;;5.13;;
50683;SDS011;36654;45.042;38.994;2023-03-09T04:34:15;10.95;;;5.43;;
50683;SDS011;36654;45.042;38.994;2023-03-09T04:36:41;7.68;;;5.40;;
50683;SDS011;36654;45.042;38.994;2023-03-09T04:39:06;9.38;;;5.90;;
50683;SDS011;36654;45.042;38.994;2023-03-09T04:41:32;6.40;;;5.20;;
50683;SDS011;36654;45.042;38.994;2023-03-09T04:43:58;9.52;;;5.55;;
50683;SDS011;36654;45.042;38.994;2023-03-09T04:46:24;9.18;;;5.68;;
50683;SDS011;36654;45.042;38.994;2023-03-09T04:48:49;10.05;;;5.32;;
50683;SDS011;36654;45.042;38.994;2023-03-09T04:51:15;9.38;;;5.35;;
50683;SDS011;36654;45.042;38.994;2023-03-09T04:53:41;10.32;;;6.13;;
50683;SDS011;36654;45.042;38.994;2023-03-09T04:56:07;8.10;;;5.85;;
50683;SDS011;36654;45.042;38.994;2023-03-09T04:58:34;8.15;;;5.72;;
50683;SDS011;36654;45.042;38.994;2023-03-09T05:00:59;7.68;;;5.97;;
50683;SDS011;36654;45.042;38.994;2023-03-09T05:03:27;9.60;;;6.43;;
50683;SDS011;36654;45.042;38.994;2023-03-09T05:05:53;7.40;;;5.20;;
50683;SDS011;36654;45.042;38.994;2023-03-09T05:08:19;10.30;;;5.70;;
50683;SDS011;36654;45.042;38.994;2023-03-09T05:10:45;7.70;;;5.43;;
50683;SDS011;36654;45.042;38.994;2023-03-09T05:13:10;6.22;;;5.50;;
50683;SDS011;36654;45.042;38.994;2023-03-09T05:15:39;7.20;;;5.28;;
50683;SDS011;36654;45.042;38.994;2023-03-09T05:18:06;11.68;;;5.55;;
50683;SDS011;36654;45.042;38.994;2023-03-09T05:20:32;7.05;;;5.32;;
50683;SDS011;36654;45.042;38.994;2023-03-09T05:22:58;7.00;;;5.32;;
50683;SDS011;36654;45.042;38.994;2023-03-09T05:25:25;8.75;;;5.70;;
50683;SDS011;36654;45.042;38.994;2023-03-09T05:27:50;8.75;;;6.00;;
50683;SDS011;36654;45.042;38.994;2023-03-09T05:30:16;10.10;;;5.97;;
50683;SDS011;36654;45.042;38.994;2023-03-09T05:32:44;9.95;;;5.07;;
50683;SDS011;36654;45.042;38.994;2023-03-09T05:35:10;10.10;;;5.85;;
50683;SDS011;36654;45.042;38.994;2023-03-09T05:37:35;10.43;;;5.95;;
50683;SDS011;36654;45.042;38.994;2023-03-09T05:40:01;8.85;;;5.55;;
50683;SDS011;36654;45.042;38.994;2023-03-09T05:42:29;12.07;;;6.32;;
50683;SDS011;36654;45.042;38.994;2023-03-09T05:44:56;10.65;;;6.30;;
50683;SDS011;36654;45.042;38.994;2023-03-09T05:47:21;8.48;;;6.22;;
50683;SDS011;36654;45.042;38.994;2023-03-09T05:49:50;10.68;;;5.88;;
50683;SDS011;36654;45.042;38.994;2023-03-09T05:54:41;8.02;;;5.30;;
50683;SDS011;36654;45.042;38.994;2023-03-09T05:57:06;10.55;;;5.75;;
50683;SDS011;36654;45.042;38.994;2023-03-09T05:59:32;8.82;;;5.97;;
50683;SDS011;36654;45.042;38.994;2023-03-09T06:01:58;9.35;;;5.68;;
50683;SDS011;36654;45.042;38.994;2023-03-09T06:04:23;10.82;;;5.70;;
50683;SDS011;36654;45.042;38.994;2023-03-09T06:06:49;9.10;;;5.75;;
50683;SDS011;36654;45.042;38.994;2023-03-09T06:09:14;8.88;;;5.75;;
50683;SDS011;36654;45.042;38.994;2023-03-09T06:11:40;9.38;;;5.65;;
50683;SDS011;36654;45.042;38.994;2023-03-09T06:14:06;7.75;;;6.50;;
50683;SDS011;36654;45.042;38.994;2023-03-09T06:16:32;10.00;;;5.75;;
50683;SDS011;36654;45.042;38.994;2023-03-09T06:18:58;6.30;;;5.18;;
50683;SDS011;36654;45.042;38.994;2023-03-09T06:21:23;8.48;;;5.32;;
50683;SDS011;36654;45.042;38.994;2023-03-09T06:23:51;8.70;;;5.82;;
50683;SDS011;36654;45.042;38.994;2023-03-09T06:26:18;7.43;;;5.70;;
50683;SDS011;36654;45.042;38.994;2023-03-09T06:28:45;9.77;;;7.15;;
50683;SDS011;36654;45.042;38.994;2023-03-09T06:31:12;8.50;;;5.72;;
50683;SDS011;36654;45.042;38.994;2023-03-09T06:33:38;8.43;;;5.30;;
50683;SDS011;36654;45.042;38.994;2023-03-09T06:36:05;9.85;;;6.00;;
50683;SDS011;36654;45.042;38.994;2023-03-09T06:38:32;9.15;;;5.70;;
50683;SDS011;36654;45.042;38.994;2023-03-09T06:40:58;9.13;;;5.65;;
50683;SDS011;36654;45.042;38.994;2023-03-09T06:43:23;7.80;;;5.57;;
50683;SDS011;36654;45.042;38.994;2023-03-09T06:45:49;6.65;;;5.15;;
50683;SDS011;36654;45.042;38.994;2023-03-09T06:48:15;6.50;;;5.20;;
50683;SDS011;36654;45.042;38.994;2023-03-09T06:50:41;7.57;;;5.22;;
50683;SDS011;36654;45.042;38.994;2023-03-09T06:53:06;6.93;;;4.95;;
50683;SDS011;36654;45.042;38.994;2023-03-09T06:55:35;7.82;;;5.25;;
50683;SDS011;36654;45.042;38.994;2023-03-09T06:58:08;7.07;;;4.95;;
50683;SDS011;36654;45.042;38.994;2023-03-09T07:00:34;6.38;;;4.57;;
50683;SDS011;36654;45.042;38.994;2023-03-09T07:03:05;7.80;;;4.95;;
50683;SDS011;36654;45.042;38.994;2023-03-09T07:05:31;8.77;;;5.00;;
50683;SDS011;36654;45.042;38.994;2023-03-09T07:07:57;6.30;;;4.57;;
50683;SDS011;36654;45.042;38.994;2023-03-09T07:10:23;7.18;;;5.05;;
50683;SDS011;36654;45.042;38.994;2023-03-09T07:12:48;6.85;;;5.07;;
50683;SDS011;36654;45.042;38.994;2023-03-09T07:15:14;8.45;;;6.10;;
50683;SDS011;36654;45.042;38.994;2023-03-09T07:17:40;7.90;;;5.72;;
50683;SDS011;36654;45.042;38.994;2023-03-09T07:20:07;9.50;;;6.05;;
50683;SDS011;36654;45.042;38.994;2023-03-09T07:22:37;10.40;;;5.65;;
50683;SDS011;36654;45.042;38.994;2023-03-09T07:25:03;11.88;;;5.60;;
50683;SDS011;36654;45.042;38.994;2023-03-09T07:27:29;7.55;;;4.95;;
50683;SDS011;36654;45.042;38.994;2023-03-09T07:29:56;7.25;;;4.80;;
50683;SDS011;36654;45.042;38.994;2023-03-09T07:32:21;6.70;;;4.70;;
50683;SDS011;36654;45.042;38.994;2023-03-09T07:34:47;8.70;;;4.88;;
50683;SDS011;36654;45.042;38.994;2023-03-09T07:37:13;8.55;;;4.78;;
50683;SDS011;36654;45.042;38.994;2023-03-09T07:39:38;10.38;;;4.78;;
50683;SDS011;36654;45.042;38.994;2023-03-09T07:42:05;6.35;;;4.00;;
50683;SDS011;36654;45.042;38.994;2023-03-09T07:44:31;7.30;;;3.95;;
50683;SDS011;36654;45.042;38.994;2023-03-09T07:46:56;6.18;;;3.95;;
50683;SDS011;36654;45.042;38.994;2023-03-09T07:49:23;8.75;;;4.10;;
50683;SDS011;36654;45.042;38.994;2023-03-09T07:51:49;8.15;;;4.05;;
50683;SDS011;36654;45.042;38.994;2023-03-09T07:54:14;8.60;;;4.10;;
50683;SDS011;36654;45.042;38.994;2023-03-09T07:56:40;7.18;;;4.15;;
50683;SDS011;36654;45.042;38.994;2023-03-09T07:59:12;9.82;;;4.43;;
50683;SDS011;36654;45.042;38.994;2023-03-09T08:01:40;7.60;;;3.90;;
50683;SDS011;36654;45.042;38.994;2023-03-09T08:04:05;4.55;;;3.88;;
50683;SDS011;36654;45.042;38.994;2023-03-09T08:06:31;7.45;;;4.57;;
50683;SDS011;36654;45.042;38.994;2023-03-09T08:08:56;7.40;;;3.78;;
50683;SDS011;36654;45.042;38.994;2023-03-09T08:11:22;4.65;;;3.47;;
50683;SDS011;36654;45.042;38.994;2023-03-09T08:13:48;4.75;;;3.38;;
50683;SDS011;36654;45.042;38.994;2023-03-09T08:16:14;6.45;;;3.97;;
50683;SDS011;36654;45.042;38.994;2023-03-09T08:18:39;6.13;;;3.72;;
50683;SDS011;36654;45.042;38.994;2023-03-09T08:21:11;7.97;;;3.58;;
50683;SDS011;36654;45.042;38.994;2023-03-09T08:23:39;3.75;;;3.45;;
50683;SDS011;36654;45.042;38.994;2023-03-09T08:26:08;6.05;;;3.65;;
50683;SDS011;36654;45.042;38.994;2023-03-09T08:28:36;6.57;;;3.97;;
50683;SDS011;36654;45.042;38.994;2023-03-09T08:31:02;5.40;;;3.50;;
50683;SDS011;36654;45.042;38.994;2023-03-09T08:33:29;5.55;;;3.80;;
50683;SDS011;36654;45.042;38.994;2023-03-09T08:35:55;4.60;;;3.25;;
50683;SDS011;36654;45.042;38.994;2023-03-09T08:38:21;4.28;;;3.47;;
50683;SDS011;36654;45.042;38.994;2023-03-09T08:40:46;4.85;;;3.70;;
50683;SDS011;36654;45.042;38.994;2023-03-09T08:43:12;4.70;;;3.78;;
50683;SDS011;36654;45.042;38.994;2023-03-09T08:45:38;3.90;;;3.42;;
50683;SDS011;36654;45.042;38.994;2023-03-09T08:48:04;4.07;;;3.67;;
50683;SDS011;36654;45.042;38.994;2023-03-09T08:50:30;7.32;;;3.70;;
50683;SDS011;36654;45.042;38.994;2023-03-09T08:52:55;5.38;;;4.03;;
50683;SDS011;36654;45.042;38.994;2023-03-09T08:55:21;6.60;;;3.72;;
50683;SDS011;36654;45.042;38.994;2023-03-09T08:57:47;4.03;;;3.60;;
50683;SDS011;36654;45.042;38.994;2023-03-09T09:00:13;3.83;;;3.42;;
50683;SDS011;36654;45.042;38.994;2023-03-09T09:02:39;6.65;;;3.95;;
50683;SDS011;36654;45.042;38.994;2023-03-09T09:05:06;6.43;;;3.40;;
50683;SDS011;36654;45.042;38.994;2023-03-09T09:07:32;4.25;;;3.63;;
50683;SDS011;36654;45.042;38.994;2023-03-09T09:09:59;4.55;;;3.40;;
50683;SDS011;36654;45.042;38.994;2023-03-09T09:12:25;5.32;;;3.75;;
50683;SDS011;36654;45.042;38.994;2023-03-09T09:14:53;6.13;;;3.35;;
50683;SDS011;36654;45.042;38.994;2023-03-09T09:17:19;6.43;;;3.70;;
50683;SDS011;36654;45.042;38.994;2023-03-09T09:19:45;4.53;;;3.33;;
50683;SDS011;36654;45.042;38.994;2023-03-09T09:22:10;6.70;;;4.28;;
50683;SDS011;36654;45.042;38.994;2023-03-09T09:24:36;5.55;;;3.78;;
50683;SDS011;36654;45.042;38.994;2023-03-09T09:27:05;5.60;;;3.97;;
50683;SDS011;36654;45.042;38.994;2023-03-09T09:29:32;11.52;;;10.18;;
50683;SDS011;36654;45.042;38.994;2023-03-09T09:31:59;6.28;;;4.65;;
50683;SDS011;36654;45.042;38.994;2023-03-09T09:34:28;9.13;;;6.90;;
50683;SDS011;36654;45.042;38.994;2023-03-09T09:37:00;8.88;;;4.97;;
50683;SDS011;36654;45.042;38.994;2023-03-09T09:39:28;6.03;;;5.10;;
50683;SDS011;36654;45.042;38.994;2023-03-09T09:41:55;5.43;;;3.92;;
50683;SDS011;36654;45.042;38.994;2023-03-09T09:44:35;4.47;;;3.72;;
50683;SDS011;36654;45.042;38.994;2023-03-09T09:47:16;7.00;;;4.70;;
50683;SDS011;36654;45.042;38.994;2023-03-09T09:49:50;5.65;;;3.65;;
50683;SDS011;36654;45.042;38.994;2023-03-09T09:55:17;7.45;;;3.53;;
50683;SDS011;36654;45.042;38.994;2023-03-09T09:58:08;4.10;;;3.10;;
50683;SDS011;36654;45.042;38.994;2023-03-09T10:00:42;7.72;;;4.22;;
50683;SDS011;36654;45.042;38.994;2023-03-09T10:06:13;7.93;;;3.22;;
50683;SDS011;36654;45.042;38.994;2023-03-09T10:08:46;6.78;;;3.15;;
50683;SDS011;36654;45.042;38.994;2023-03-09T10:13:51;5.35;;;3.45;;
50683;SDS011;36654;45.042;38.994;2023-03-09T10:16:24;4.40;;;3.53;;
50683;SDS011;36654;45.042;38.994;2023-03-09T10:22:23;7.18;;;3.45;;
50683;SDS011;36654;45.042;38.994;2023-03-09T10:24:54;7.45;;;3.97;;
50683;SDS011;36654;45.042;38.994;2023-03-09T10:27:24;4.93;;;3.70;;
50683;SDS011;36654;45.042;38.994;2023-03-09T10:32:46;3.60;;;3.22;;
50683;SDS011;36654;45.042;38.994;2023-03-09T10:35:19;6.47;;;3.38;;
50683;SDS011;36654;45.042;38.994;2023-03-09T10:37:48;5.97;;;3.60;;
50683;SDS011;36654;45.042;38.994;2023-03-09T10:40:20;3.83;;;3.30;;
50683;SDS011;36654;45.042;38.994;2023-03-09T10:42:47;11.18;;;3.50;;
50683;SDS011;36654;45.042;38.994;2023-03-09T10:47:51;5.07;;;3.08;;
50683;SDS011;36654;45.042;38.994;2023-03-09T10:50:19;8.00;;;3.45;;
50683;SDS011;36654;45.042;38.994;2023-03-09T10:52:48;4.20;;;3.15;;
50683;SDS011;36654;45.042;38.994;2023-03-09T10:57:58;4.47;;;3.10;;
50683;SDS011;36654;45.042;38.994;2023-03-09T11:00:25;4.20;;;3.03;;
50683;SDS011;36654;45.042;38.994;2023-03-09T11:02:52;4.95;;;3.10;;
50683;SDS011;36654;45.042;38.994;2023-03-09T11:08:20;4.68;;;3.22;;
50683;SDS011;36654;45.042;38.994;2023-03-09T11:11:14;3.20;;;2.90;;
50683;SDS011;36654;45.042;38.994;2023-03-09T11:13:46;5.93;;;3.58;;
50683;SDS011;36654;45.042;38.994;2023-03-09T11:18:41;3.75;;;3.20;;
50683;SDS011;36654;45.042;38.994;2023-03-09T11:21:07;5.25;;;3.28;;
50683;SDS011;36654;45.042;38.994;2023-03-09T11:23:38;5.15;;;3.17;;
50683;SDS011;36654;45.042;38.994;2023-03-09T11:31:34;5.65;;;3.30;;
50683;SDS011;36654;45.042;38.994;2023-03-09T11:34:02;6.35;;;3.20;;
50683;SDS011;36654;45.042;38.994;2023-03-09T11:36:33;4.90;;;3.55;;
50683;SDS011;36654;45.042;38.994;2023-03-09T11:39:05;6.53;;;3.00;;
50683;SDS011;36654;45.042;38.994;2023-03-09T11:41:42;6.05;;;3.28;;
50683;SDS011;36654;45.042;38.994;2023-03-09T11:44:13;5.00;;;3.47;;
50683;SDS011;36654;45.042;38.994;2023-03-09T11:46:49;6.35;;;3.03;;
50683;SDS011;36654;45.042;38.994;2023-03-09T11:49:18;6.10;;;2.95;;
50683;SDS011;36654;45.042;38.994;2023-03-09T11:51:49;3.85;;;3.35;;
50683;SDS011;36654;45.042;38.994;2023-03-09T11:54:36;5.03;;;3.05;;
50683;SDS011;36654;45.042;38.994;2023-03-09T11:57:16;4.53;;;3.40;;
50683;SDS011;36654;45.042;38.994;2023-03-09T11:59:46;5.03;;;3.58;;
50683;SDS011;36654;45.042;38.994;2023-03-09T12:05:15;5.97;;;3.45;;
50683;SDS011;36654;45.042;38.994;2023-03-09T12:07:48;3.50;;;3.20;;
50683;SDS011;36654;45.042;38.994;2023-03-09T12:10:27;7.93;;;3.53;;
50683;SDS011;36654;45.042;38.994;2023-03-09T12:13:09;4.38;;;3.50;;
50683;SDS011;36654;45.042;38.994;2023-03-09T12:15:58;7.57;;;3.67;;
50683;SDS011;36654;45.042;38.994;2023-03-09T12:18:30;4.60;;;3.35;;
50683;SDS011;36654;45.042;38.994;2023-03-09T12:20:59;6.82;;;4.03;;
50683;SDS011;36654;45.042;38.994;2023-03-09T12:26:01;4.65;;;3.28;;
50683;SDS011;36654;45.042;38.994;2023-03-09T12:28:31;5.47;;;4.30;;
50683;SDS011;36654;45.042;38.994;2023-03-09T12:30:59;3.92;;;3.50;;
50683;SDS011;36654;45.042;38.994;2023-03-09T12:36:22;7.40;;;3.45;;
50683;SDS011;36654;45.042;38.994;2023-03-09T12:42:24;3.70;;;3.15;;
50683;SDS011;36654;45.042;38.994;2023-03-09T12:50:16;4.13;;;3.50;;
50683;SDS011;36654;45.042;38.994;2023-03-09T12:53:20;5.70;;;3.38;;
50683;SDS011;36654;45.042;38.994;2023-03-09T12:55:54;9.50;;;3.95;;
50683;SDS011;36654;45.042;38.994;2023-03-09T13:00:56;6.45;;;3.72;;
50683;SDS011;36654;45.042;38.994;2023-03-09T13:06:03;7.95;;;4.25;;
50683;SDS011;36654;45.042;38.994;2023-03-09T13:08:39;8.35;;;4.35;;
50683;SDS011;36654;45.042;38.994;2023-03-09T13:14:14;6.15;;;4.18;;
50683;SDS011;36654;45.042;38.994;2023-03-09T13:21:46;7.80;;;4.78;;
50683;SDS011;36654;45.042;38.994;2023-03-09T13:26:44;8.00;;;4.25;;
50683;SDS011;36654;45.042;38.994;2023-03-09T13:29:16;7.65;;;4.43;;
50683;SDS011;36654;45.042;38.994;2023-03-09T13:31:46;5.97;;;3.85;;
50683;SDS011;36654;45.042;38.994;2023-03-09T13:34:23;5.93;;;4.32;;
50683;SDS011;36654;45.042;38.994;2023-03-09T13:36:50;9.27;;;5.22;;
50683;SDS011;36654;45.042;38.994;2023-03-09T13:39:20;5.68;;;4.30;;
50683;SDS011;36654;45.042;38.994;2023-03-09T13:41:48;8.30;;;5.07;;
50683;SDS011;36654;45.042;38.994;2023-03-09T13:44:18;8.15;;;5.00;;
50683;SDS011;36654;45.042;38.994;2023-03-09T13:46:48;10.65;;;5.05;;
50683;SDS011;36654;45.042;38.994;2023-03-09T13:51:55;8.20;;;4.40;;
50683;SDS011;36654;45.042;38.994;2023-03-09T13:54:30;8.18;;;4.50;;
50683;SDS011;36654;45.042;38.994;2023-03-09T13:57:03;7.00;;;4.07;;
50683;SDS011;36654;45.042;38.994;2023-03-09T14:02:20;6.05;;;4.00;;
50683;SDS011;36654;45.042;38.994;2023-03-09T14:05:00;5.68;;;4.30;;
50683;SDS011;36654;45.042;38.994;2023-03-09T14:07:42;8.48;;;4.63;;
50683;SDS011;36654;45.042;38.994;2023-03-09T14:12:46;10.45;;;4.93;;
50683;SDS011;36654;45.042;38.994;2023-03-09T14:15:19;6.15;;;4.65;;
50683;SDS011;36654;45.042;38.994;2023-03-09T14:17:47;6.40;;;4.47;;
50683;SDS011;36654;45.042;38.994;2023-03-09T14:20:15;9.07;;;4.47;;
50683;SDS011;36654;45.042;38.994;2023-03-09T14:22:49;10.05;;;4.65;;
50683;SDS011;36654;45.042;38.994;2023-03-09T14:30:32;16.40;;;4.72;;
50683;SDS011;36654;45.042;38.994;2023-03-09T14:33:28;8.18;;;4.70;;
50683;SDS011;36654;45.042;38.994;2023-03-09T14:36:18;7.45;;;4.68;;
50683;SDS011;36654;45.042;38.994;2023-03-09T14:41:24;8.93;;;4.70;;
50683;SDS011;36654;45.042;38.994;2023-03-09T14:43:52;11.45;;;5.28;;
50683;SDS011;36654;45.042;38.994;2023-03-09T14:46:19;7.38;;;4.88;;
50683;SDS011;36654;45.042;38.994;2023-03-09T14:48:47;9.60;;;5.22;;
50683;SDS011;36654;45.042;38.994;2023-03-09T14:51:18;9.63;;;5.28;;
50683;SDS011;36654;45.042;38.994;2023-03-09T14:56:24;10.02;;;5.68;;
50683;SDS011;36654;45.042;38.994;2023-03-09T14:58:51;13.05;;;6.40;;
50683;SDS011;36654;45.042;38.994;2023-03-09T15:01:38;10.05;;;5.32;;
50683;SDS011;36654;45.042;38.994;2023-03-09T15:04:05;11.38;;;5.82;;
50683;SDS011;36654;45.042;38.994;2023-03-09T15:06:38;6.80;;;4.65;;
50683;SDS011;36654;45.042;38.994;2023-03-09T15:09:06;7.43;;;5.20;;
50683;SDS011;36654;45.042;38.994;2023-03-09T15:11:33;11.63;;;6.00;;
50683;SDS011;36654;45.042;38.994;2023-03-09T15:28:16;11.38;;;5.97;;
50683;SDS011;36654;45.042;38.994;2023-03-09T15:30:55;10.52;;;5.45;;
50683;SDS011;36654;45.042;38.994;2023-03-09T15:33:21;10.95;;;5.47;;
50683;SDS011;36654;45.042;38.994;2023-03-09T15:35:47;12.40;;;5.38;;
50683;SDS011;36654;45.042;38.994;2023-03-09T15:38:15;10.77;;;5.30;;
50683;SDS011;36654;45.042;38.994;2023-03-09T15:40:41;8.43;;;4.95;;
50683;SDS011;36654;45.042;38.994;2023-03-09T15:43:07;14.63;;;6.30;;
50683;SDS011;36654;45.042;38.994;2023-03-09T15:45:33;10.70;;;6.15;;
50683;SDS011;36654;45.042;38.994;2023-03-09T15:48:07;11.63;;;5.90;;
50683;SDS011;36654;45.042;38.994;2023-03-09T15:50:33;10.02;;;5.80;;
50683;SDS011;36654;45.042;38.994;2023-03-09T15:53:03;11.18;;;6.35;;
50683;SDS011;36654;45.042;38.994;2023-03-09T15:55:29;9.43;;;5.80;;
50683;SDS011;36654;45.042;38.994;2023-03-09T15:58:01;14.88;;;6.38;;
50683;SDS011;36654;45.042;38.994;2023-03-09T16:00:30;12.65;;;6.63;;
50683;SDS011;36654;45.042;38.994;2023-03-09T16:03:01;12.57;;;6.20;;
50683;SDS011;36654;45.042;38.994;2023-03-09T16:05:29;13.82;;;6.18;;
50683;SDS011;36654;45.042;38.994;2023-03-09T16:07:55;14.30;;;6.57;;
50683;SDS011;36654;45.042;38.994;2023-03-09T16:10:22;12.32;;;5.43;;
50683;SDS011;36654;45.042;38.994;2023-03-09T16:12:47;9.38;;;5.22;;
50683;SDS011;36654;45.042;38.994;2023-03-09T16:15:14;10.40;;;5.38;;
50683;SDS011;36654;45.042;38.994;2023-03-09T16:17:58;13.32;;;4.97;;
50683;SDS011;36654;45.042;38.994;2023-03-09T16:24:35;12.75;;;4.93;;
50683;SDS011;36654;45.042;38.994;2023-03-09T16:27:15;6.68;;;4.88;;
50683;SDS011;36654;45.042;38.994;2023-03-09T16:32:47;6.18;;;4.28;;
50683;SDS011;36654;45.042;38.994;2023-03-09T16:35:14;14.57;;;5.55;;
50683;SDS011;36654;45.042;38.994;2023-03-09T16:37:42;8.02;;;5.22;;